Search for airport 
image banner adimage banner adimage banner ad
image banner ad

7PA8 - The Farm

Located in Cochranton, United States

ICAO - 7PA8, IATA -

Data provided by Airmate  

General information

Coordinates: N41°27'23" W79°58'58"
Elevation is 1100 feet MSL.
 
View others Airports in Pennsylvania

Operational data

Special qualification required
Current time UTC:
Current local time:
Weather at : KFKL - Venango Rgnl ( 13 km )
METAR: KFKL 091356Z AUTO 12004KT 10SM OVC047 05/02 A3000 RMK AO2 SLP171 T00500022
TAF: KFKL 091120Z 0912/1012 14003KT P6SM -RA BKN050 FM091500 12007KT 5SM -RA BR OVC010 FM091700 06006KT 3SM RA BR OVC005 FM100100 02006KT 4SM -RA BR OVC005 FM100400 36004KT P6SM BKN006 FM100900 29005KT P6SM BKN010
View NOTAMs / SUP AIP / TFR affecting this airport [VIEW]
Communications frequencies: [VIEW]

Runways:

RWY identifierQFULength (ft)Width (ft)SurfaceLDA (ft)
132741100GRASS
312741100GRASS

Airport contact information

Address: Cochranton United States

Satellite view of 7PA8